Time;durP1;ratioP1;P1;durP2;ratioP2;P2;SDS_P1;SDS_P2;PMS_P1;PMS_P2;Temp;Humidity;BMP_temperature;BMP_pressure;BME280_temperature;BME280_humidity;BME280_pressure;Samples;Min_cycle;Max_cycle;Signal;HPM_P1;HPM_P2
2023/05/18 00:02:04;;;;;;;21.38;3.20;;;;;;;;;;5063390;28;20056;-73
2023/05/18 00:04:38;;;;;;;15.85;2.88;;;;;;;;;;5064323;28;20045;-74
2023/05/18 00:07:10;;;;;;;10.25;2.17;;;;;;;;;;5064906;28;20052;-74
2023/05/18 00:09:42;;;;;;;14.52;2.75;;;;;;;;;;5066670;28;20052;-75
2023/05/18 00:12:13;;;;;;;10.98;2.78;;;;;;;;;;5067283;28;20040;-73
2023/05/18 00:14:45;;;;;;;18.25;3.35;;;;;;;;;;5066997;28;20053;-75
2023/05/18 00:17:19;;;;;;;6.93;2.60;;;;;;;;;;5066875;28;20499;-75
2023/05/18 00:19:50;;;;;;;8.75;2.05;;;;;;;;;;5066527;28;20045;-75
2023/05/18 00:22:22;;;;;;;8.95;2.20;;;;;;;;;;5065293;28;20055;-76
2023/05/18 00:24:54;;;;;;;7.25;2.50;;;;;;;;;;5066411;28;20055;-76
2023/05/18 00:27:28;;;;;;;17.30;3.38;;;;;;;;;;5062462;28;20067;-76
2023/05/18 00:30:05;;;;;;;8.90;2.28;;;;;;;;;;5066333;28;20522;-75
2023/05/18 00:32:37;;;;;;;7.95;2.38;;;;;;;;;;5064455;28;20531;-74
2023/05/18 00:35:09;;;;;;;12.85;2.50;;;;;;;;;;5061536;28;20040;-76
2023/05/18 00:37:41;;;;;;;6.18;2.25;;;;;;;;;;5054940;28;20049;-75
2023/05/18 00:40:14;;;;;;;17.63;2.97;;;;;;;;;;5063941;28;21003;-75
2023/05/18 00:42:45;;;;;;;13.95;3.03;;;;;;;;;;5052954;28;20044;-76
2023/05/18 00:45:20;;;;;;;9.55;2.42;;;;;;;;;;5066334;28;20083;-75
2023/05/18 00:47:53;;;;;;;19.40;2.42;;;;;;;;;;5066970;28;20045;-76
2023/05/18 00:50:26;;;;;;;8.10;2.20;;;;;;;;;;5061878;28;20056;-76
2023/05/18 00:52:59;;;;;;;8.07;2.00;;;;;;;;;;5065535;28;20425;-75
2023/05/18 00:55:31;;;;;;;9.50;2.20;;;;;;;;;;5063395;28;20060;-76
2023/05/18 00:58:05;;;;;;;6.70;2.13;;;;;;;;;;5064489;28;20048;-75
2023/05/18 01:00:39;;;;;;;7.70;2.30;;;;;;;;;;5063871;28;20048;-77
2023/05/18 01:03:14;;;;;;;9.35;2.88;;;;;;;;;;5065879;28;20753;-76
2023/05/18 01:05:54;;;;;;;10.73;2.83;;;;;;;;;;5063549;28;20060;-74
2023/05/18 01:08:28;;;;;;;7.88;3.15;;;;;;;;;;5066360;28;20071;-74
2023/05/18 01:11:21;;;;;;;7.85;2.55;;;;;;;;;;5066081;28;20500;-75
2023/05/18 01:14:05;;;;;;;14.05;2.75;;;;;;;;;;5065898;28;20045;-75
2023/05/18 01:16:44;;;;;;;6.65;2.90;;;;;;;;;;5064446;28;20044;-75
2023/05/18 01:19:41;;;;;;;10.20;2.25;;;;;;;;;;5064578;28;20055;-75
2023/05/18 01:22:36;;;;;;;9.63;3.53;;;;;;;;;;5064533;28;20609;-75
2023/05/18 01:25:18;;;;;;;10.45;3.08;;;;;;;;;;5065743;28;20037;-76
2023/05/18 01:27:50;;;;;;;8.75;3.03;;;;;;;;;;5065398;28;20427;-75
2023/05/18 01:30:22;;;;;;;14.20;2.63;;;;;;;;;;5063601;28;20059;-75
2023/05/18 01:32:53;;;;;;;6.85;2.60;;;;;;;;;;5064554;28;20036;-75
2023/05/18 01:35:24;;;;;;;10.35;3.25;;;;;;;;;;5063532;28;20045;-75
2023/05/18 01:37:54;;;;;;;12.95;2.42;;;;;;;;;;5065444;28;20098;-76
2023/05/18 01:40:28;;;;;;;10.00;2.75;;;;;;;;;;5065442;28;20046;-75
2023/05/18 01:43:05;;;;;;;9.70;3.35;;;;;;;;;;5065058;28;20538;-74
2023/05/18 01:45:42;;;;;;;5.03;2.08;;;;;;;;;;5065494;28;20055;-76
2023/05/18 01:48:17;;;;;;;11.68;2.80;;;;;;;;;;5064192;28;20064;-75
2023/05/18 01:50:51;;;;;;;5.57;2.22;;;;;;;;;;5063611;28;20534;-75
2023/05/18 01:53:41;;;;;;;7.80;2.75;;;;;;;;;;5063401;28;20052;-75
2023/05/18 01:56:13;;;;;;;17.83;3.13;;;;;;;;;;5064851;28;20044;-74
2023/05/18 01:58:44;;;;;;;8.88;2.92;;;;;;;;;;5063050;28;20048;-75
2023/05/18 02:01:18;;;;;;;15.90;3.47;;;;;;;;;;5063101;28;20531;-75
2023/05/18 02:03:50;;;;;;;7.60;2.95;;;;;;;;;;5062626;28;20063;-75
2023/05/18 02:06:21;;;;;;;6.80;3.10;;;;;;;;;;5063433;28;20048;-75
2023/05/18 02:08:52;;;;;;;2.92;1.77;;;;;;;;;;5063673;28;20045;-75
2023/05/18 02:11:23;;;;;;;6.05;2.25;;;;;;;;;;5062944;28;20419;-74
2023/05/18 02:13:53;;;;;;;5.40;2.17;;;;;;;;;;5063048;28;20064;-74
2023/05/18 02:16:24;;;;;;;8.15;2.88;;;;;;;;;;5062444;28;20044;-76
2023/05/18 02:18:54;;;;;;;4.22;2.80;;;;;;;;;;5062769;28;20048;-75
2023/05/18 02:21:26;;;;;;;9.70;2.30;;;;;;;;;;5064853;28;20055;-73
2023/05/18 02:23:57;;;;;;;7.10;3.15;;;;;;;;;;5064866;28;20048;-75
2023/05/18 02:26:28;;;;;;;8.32;2.50;;;;;;;;;;5063131;28;20059;-74
2023/05/18 02:28:58;;;;;;;18.60;3.25;;;;;;;;;;5062537;28;20059;-74
2023/05/18 02:31:31;;;;;;;6.22;2.65;;;;;;;;;;5064884;28;20048;-74
2023/05/18 02:34:03;;;;;;;14.30;2.85;;;;;;;;;;5064573;28;20060;-74
2023/05/18 02:36:38;;;;;;;7.03;2.47;;;;;;;;;;5063083;28;20056;-74
2023/05/18 02:39:09;;;;;;;15.65;3.55;;;;;;;;;;5062703;28;20048;-73
2023/05/18 02:41:40;;;;;;;17.65;4.07;;;;;;;;;;5062959;28;20052;-73
2023/05/18 02:44:11;;;;;;;15.73;3.35;;;;;;;;;;5064839;28;20057;-74
2023/05/18 02:46:42;;;;;;;21.77;3.65;;;;;;;;;;5067080;28;21008;-73
2023/05/18 02:49:12;;;;;;;9.50;2.70;;;;;;;;;;5066458;28;20052;-74
2023/05/18 02:51:43;;;;;;;8.25;3.10;;;;;;;;;;5066387;28;20044;-74
2023/05/18 02:54:14;;;;;;;11.68;2.60;;;;;;;;;;5066754;28;20439;-74
2023/05/18 02:56:45;;;;;;;12.32;3.50;;;;;;;;;;5066620;28;20545;-73
2023/05/18 02:59:37;;;;;;;7.18;2.05;;;;;;;;;;5060178;28;20052;-74
2023/05/18 03:02:08;;;;;;;9.73;2.47;;;;;;;;;;5066723;28;20059;-74
2023/05/18 03:04:40;;;;;;;13.45;3.03;;;;;;;;;;5068304;28;20078;-73
2023/05/18 03:07:11;;;;;;;11.82;3.38;;;;;;;;;;5068478;28;20049;-74
2023/05/18 03:09:41;;;;;;;12.70;3.15;;;;;;;;;;5066126;28;20053;-74
2023/05/18 03:12:11;;;;;;;15.13;2.67;;;;;;;;;;5065747;28;20056;-74
2023/05/18 03:14:41;;;;;;;9.90;3.03;;;;;;;;;;5068128;28;20067;-74
2023/05/18 03:17:12;;;;;;;10.77;3.38;;;;;;;;;;5066019;28;20049;-74
2023/05/18 03:19:42;;;;;;;12.25;3.13;;;;;;;;;;5065428;28;20055;-75
2023/05/18 03:22:13;;;;;;;4.72;2.13;;;;;;;;;;5066583;28;20051;-74
2023/05/18 03:24:45;;;;;;;15.77;2.60;;;;;;;;;;5065689;28;20056;-74
2023/05/18 03:27:19;;;;;;;4.82;2.67;;;;;;;;;;5065852;28;20068;-74
2023/05/18 03:29:49;;;;;;;9.48;2.90;;;;;;;;;;5065305;28;20534;-74
2023/05/18 03:32:19;;;;;;;6.65;1.83;;;;;;;;;;5066005;28;20633;-74
2023/05/18 03:34:53;;;;;;;14.45;2.08;;;;;;;;;;5065446;28;20059;-74
2023/05/18 03:37:23;;;;;;;12.43;3.13;;;;;;;;;;5065921;28;20538;-73
2023/05/18 03:40:09;;;;;;;8.95;2.80;;;;;;;;;;5065951;28;20055;-73
2023/05/18 03:42:42;;;;;;;10.93;2.42;;;;;;;;;;5065898;28;21047;-74
2023/05/18 03:45:13;;;;;;;6.50;2.28;;;;;;;;;;5065489;28;20056;-73
2023/05/18 03:47:44;;;;;;;7.88;1.98;;;;;;;;;;5065894;28;20056;-74
2023/05/18 03:50:15;;;;;;;11.85;2.83;;;;;;;;;;5065252;28;20052;-73
2023/05/18 03:52:46;;;;;;;9.13;2.70;;;;;;;;;;5065611;28;21155;-73
2023/05/18 03:55:16;;;;;;;;;;;;;;;;;;5065609;28;20045;-73
2023/05/18 03:57:47;;;;;;;8.68;3.10;;;;;;;;;;5068252;28;19943;-74
2023/05/18 04:00:18;;;;;;;5.07;2.25;;;;;;;;;;5066262;28;20419;-73
2023/05/18 04:02:50;;;;;;;8.63;2.40;;;;;;;;;;5067981;28;20055;-75
2023/05/18 04:05:24;;;;;;;6.25;2.13;;;;;;;;;;5071662;28;20044;-73
2023/05/18 04:07:56;;;;;;;8.15;2.50;;;;;;;;;;5083199;28;20060;-72
2023/05/18 04:10:27;;;;;;;6.72;2.70;;;;;;;;;;5071125;28;20067;-74
2023/05/18 04:12:58;;;;;;;5.32;2.33;;;;;;;;;;5067317;28;20048;-73
2023/05/18 04:15:28;;;;;;;4.28;1.73;;;;;;;;;;5065046;28;20064;-73
2023/05/18 04:18:00;;;;;;;5.28;1.90;;;;;;;;;;5067444;28;20055;-73
2023/05/18 04:20:31;;;;;;;5.57;2.10;;;;;;;;;;5067573;28;20049;-73
2023/05/18 04:23:02;;;;;;;3.78;2.08;;;;;;;;;;5064989;28;20610;-74
2023/05/18 04:25:32;;;;;;;6.97;2.35;;;;;;;;;;5066733;28;20048;-72
2023/05/18 04:28:03;;;;;;;10.63;2.65;;;;;;;;;;5066564;28;20708;-73
2023/05/18 04:30:36;;;;;;;14.35;3.20;;;;;;;;;;5064456;28;20427;-74
2023/05/18 04:33:07;;;;;;;5.72;2.60;;;;;;;;;;5064819;28;20060;-73
2023/05/18 04:35:37;;;;;;;11.57;2.60;;;;;;;;;;5064924;28;20096;-74
2023/05/18 04:38:07;;;;;;;10.30;2.60;;;;;;;;;;5065144;28;20044;-73
2023/05/18 04:40:41;;;;;;;;;;;;;;;;;;5066043;28;20051;-74
2023/05/18 04:43:16;;;;;;;8.77;2.92;;;;;;;;;;5064588;28;20284;-73
2023/05/18 04:45:49;;;;;;;13.45;2.70;;;;;;;;;;5064720;28;20068;-73
2023/05/18 04:48:19;;;;;;;4.93;2.55;;;;;;;;;;5064109;28;20044;-73
2023/05/18 04:50:53;;;;;;;;;;;;;;;;;;5064781;28;20052;-73
2023/05/18 04:53:23;;;;;;;12.95;2.63;;;;;;;;;;5064483;28;19943;-73
2023/05/18 04:55:55;;;;;;;6.55;2.50;;;;;;;;;;5064095;28;20048;-73
2023/05/18 04:58:29;;;;;;;5.93;2.10;;;;;;;;;;5066231;28;20052;-73
2023/05/18 05:00:59;;;;;;;7.10;2.70;;;;;;;;;;5064077;28;20059;-73
2023/05/18 05:03:30;;;;;;;10.80;2.88;;;;;;;;;;5066211;28;20056;-74
2023/05/18 05:06:02;;;;;;;6.57;2.58;;;;;;;;;;5064181;28;20052;-73
2023/05/18 05:08:37;;;;;;;8.93;2.85;;;;;;;;;;5062883;28;20048;-74
2023/05/18 05:11:07;;;;;;;12.30;2.70;;;;;;;;;;5064107;28;20052;-73
2023/05/18 05:13:41;;;;;;;5.22;2.83;;;;;;;;;;5064039;28;20045;-73
2023/05/18 05:16:11;;;;;;;9.20;2.50;;;;;;;;;;5065904;28;20044;-74
2023/05/18 05:18:41;;;;;;;6.15;2.70;;;;;;;;;;5066140;28;20055;-73
2023/05/18 05:21:15;;;;;;;11.18;2.17;;;;;;;;;;5063917;28;20526;-74
2023/05/18 05:23:46;;;;;;;3.83;1.35;;;;;;;;;;5063324;28;20578;-73
2023/05/18 05:26:18;;;;;;;20.48;2.25;;;;;;;;;;5063425;28;20063;-74
2023/05/18 05:28:49;;;;;;;3.40;1.60;;;;;;;;;;5063620;28;20516;-73
2023/05/18 05:31:19;;;;;;;7.80;1.65;;;;;;;;;;5063773;28;20059;-74
2023/05/18 05:33:51;;;;;;;7.10;1.75;;;;;;;;;;5063454;28;20060;-73
2023/05/18 05:36:23;;;;;;;7.03;2.17;;;;;;;;;;5063538;28;20056;-73
2023/05/18 05:38:53;;;;;;;8.80;2.30;;;;;;;;;;5063386;28;20407;-74
2023/05/18 05:41:24;;;;;;;15.48;2.63;;;;;;;;;;5063283;28;20049;-74
2023/05/18 05:43:55;;;;;;;7.97;2.10;;;;;;;;;;5063089;28;20053;-73
2023/05/18 05:46:26;;;;;;;4.55;1.75;;;;;;;;;;5063779;28;20057;-73
2023/05/18 05:48:57;;;;;;;7.03;1.88;;;;;;;;;;5063498;28;20052;-74
2023/05/18 05:51:28;;;;;;;5.35;2.20;;;;;;;;;;5065583;28;20513;-74
2023/05/18 05:53:57;;;;;;;;;;;;;;;;;;5064939;28;20045;-74
2023/05/18 05:56:27;;;;;;;3.20;1.80;;;;;;;;;;5062805;28;19930;-74
2023/05/18 05:58:57;;;;;;;3.95;2.30;;;;;;;;;;5062964;28;20059;-74
2023/05/18 06:01:28;;;;;;;3.95;2.10;;;;;;;;;;5062985;28;20044;-73
2023/05/18 06:03:58;;;;;;;3.97;2.30;;;;;;;;;;5063049;28;20052;-73
2023/05/18 06:06:31;;;;;;;4.35;2.10;;;;;;;;;;5063040;28;20613;-74
2023/05/18 06:09:03;;;;;;;4.75;2.08;;;;;;;;;;5063338;28;20048;-74
2023/05/18 06:11:34;;;;;;;34.53;2.45;;;;;;;;;;5063199;28;20063;-73
2023/05/18 06:14:04;;;;;;;3.15;1.65;;;;;;;;;;5062710;28;20052;-74
2023/05/18 06:16:35;;;;;;;3.33;1.63;;;;;;;;;;5047234;28;20052;-74
2023/05/18 06:19:07;;;;;;;8.32;1.80;;;;;;;;;;5062482;28;20053;-74
2023/05/18 06:21:38;;;;;;;5.75;1.83;;;;;;;;;;5063127;28;20059;-74
2023/05/18 06:24:10;;;;;;;4.60;1.90;;;;;;;;;;5062863;28;20519;-73
2023/05/18 06:26:51;;;;;;;5.00;1.88;;;;;;;;;;5062814;28;20060;-74
2023/05/18 06:29:58;;;;;;;6.43;1.77;;;;;;;;;;5003072;28;20049;-74
2023/05/18 06:32:38;;;;;;;5.45;1.80;;;;;;;;;;5054383;28;20048;-73
2023/05/18 06:35:09;;;;;;;3.25;2.03;;;;;;;;;;5063234;28;20052;-74
2023/05/18 06:37:39;;;;;;;3.15;1.85;;;;;;;;;;5062715;28;20511;-74
2023/05/18 06:40:10;;;;;;;3.08;2.10;;;;;;;;;;5065172;28;20064;-74
2023/05/18 06:42:41;;;;;;;9.00;2.20;;;;;;;;;;5062770;28;20049;-73
2023/05/18 06:45:31;;;;;;;5.07;1.88;;;;;;;;;;5063312;28;20048;-74
2023/05/18 06:48:13;;;;;;;2.72;1.40;;;;;;;;;;5062752;28;20075;-74
2023/05/18 06:50:44;;;;;;;2.97;1.40;;;;;;;;;;5062891;28;20380;-74
2023/05/18 06:53:16;;;;;;;4.93;1.95;;;;;;;;;;5062151;28;20499;-74
2023/05/18 06:55:46;;;;;;;2.95;2.08;;;;;;;;;;5065114;28;20054;-74
2023/05/18 06:58:19;;;;;;;2.35;1.77;;;;;;;;;;5062338;28;20053;-74
2023/05/18 07:00:50;;;;;;;7.43;2.00;;;;;;;;;;5062651;28;20075;-74
2023/05/18 07:03:20;;;;;;;7.32;1.90;;;;;;;;;;5064620;28;20048;-74
2023/05/18 07:05:51;;;;;;;3.63;2.00;;;;;;;;;;5062523;28;20513;-74
2023/05/18 07:08:23;;;;;;;4.03;1.67;;;;;;;;;;5064143;28;20052;-74
2023/05/18 07:10:56;;;;;;;2.38;1.60;;;;;;;;;;5064260;28;20055;-74
2023/05/18 07:13:27;;;;;;;2.22;1.45;;;;;;;;;;5064284;28;20042;-73
2023/05/18 07:15:59;;;;;;;4.10;1.42;;;;;;;;;;5064370;28;20055;-75
2023/05/18 07:18:30;;;;;;;3.28;1.42;;;;;;;;;;5064259;28;20048;-75
2023/05/18 07:21:00;;;;;;;2.33;1.30;;;;;;;;;;5064478;28;20053;-74
2023/05/18 07:23:31;;;;;;;2.83;1.58;;;;;;;;;;5064560;28;20052;-75
2023/05/18 07:26:01;;;;;;;3.97;2.00;;;;;;;;;;5062985;28;20519;-75
2023/05/18 07:28:32;;;;;;;3.33;1.60;;;;;;;;;;5062805;28;20095;-74
2023/05/18 07:31:04;;;;;;;2.45;1.73;;;;;;;;;;5065460;28;20059;-75
2023/05/18 07:33:34;;;;;;;2.80;1.38;;;;;;;;;;5067915;28;20054;-75
2023/05/18 07:36:07;;;;;;;2.17;1.20;;;;;;;;;;5067654;28;20052;-74
2023/05/18 07:38:38;;;;;;;3.20;1.10;;;;;;;;;;5067979;28;20063;-75
2023/05/18 07:41:10;;;;;;;3.20;1.70;;;;;;;;;;5067166;28;20036;-75
2023/05/18 07:43:41;;;;;;;1.77;1.30;;;;;;;;;;5067069;28;20048;-74
2023/05/18 07:46:10;;;;;;;;;;;;;;;;;;5068011;28;20071;-75
2023/05/18 07:48:42;;;;;;;3.45;1.88;;;;;;;;;;5067669;28;19928;-74
2023/05/18 07:51:12;;;;;;;2.42;1.50;;;;;;;;;;5067317;28;20041;-74
2023/05/18 07:53:44;;;;;;;3.55;1.63;;;;;;;;;;5067425;28;20048;-74
2023/05/18 07:56:15;;;;;;;4.55;1.88;;;;;;;;;;5067516;28;20060;-74
2023/05/18 07:58:47;;;;;;;6.45;1.98;;;;;;;;;;5067635;28;20040;-75
2023/05/18 08:01:18;;;;;;;2.05;1.55;;;;;;;;;;5067486;28;20044;-74
2023/05/18 08:03:48;;;;;;;4.00;1.77;;;;;;;;;;5066740;28;20055;-74
2023/05/18 08:06:20;;;;;;;2.85;1.45;;;;;;;;;;5067099;28;20056;-74
2023/05/18 08:08:51;;;;;;;2.85;1.75;;;;;;;;;;5066597;28;20542;-75
2023/05/18 08:11:26;;;;;;;;;;;;;;;;;;5067430;28;20048;-75
2023/05/18 08:13:55;;;;;;;5.65;1.98;;;;;;;;;;5066223;28;20457;-75
2023/05/18 08:16:26;;;;;;;2.42;1.60;;;;;;;;;;5067147;28;20049;-75
2023/05/18 08:18:56;;;;;;;8.18;1.73;;;;;;;;;;5067209;28;20044;-74
2023/05/18 08:21:28;;;;;;;3.42;1.60;;;;;;;;;;5067099;28;20491;-74
2023/05/18 08:23:58;;;;;;;3.60;2.25;;;;;;;;;;5066822;28;20048;-75
2023/05/18 08:26:28;;;;;;;4.35;2.17;;;;;;;;;;5066819;28;20055;-75
2023/05/18 08:28:58;;;;;;;4.50;1.90;;;;;;;;;;5066279;28;20069;-75
2023/05/18 08:31:29;;;;;;;3.00;1.60;;;;;;;;;;5066480;28;20055;-75
2023/05/18 08:34:00;;;;;;;17.70;2.10;;;;;;;;;;5066598;28;20048;-75
2023/05/18 08:36:31;;;;;;;3.20;1.48;;;;;;;;;;5066529;28;20056;-75
2023/05/18 08:39:04;;;;;;;2.05;1.60;;;;;;;;;;5066492;28;20048;-75
2023/05/18 08:41:40;;;;;;;4.60;1.90;;;;;;;;;;5066549;28;20051;-75
2023/05/18 08:44:23;;;;;;;2.88;2.17;;;;;;;;;;5066590;28;20044;-77
2023/05/18 08:46:55;;;;;;;2.55;1.60;;;;;;;;;;5064539;28;20667;-75
2023/05/18 08:49:27;;;;;;;4.43;2.30;;;;;;;;;;5066819;28;20059;-75
2023/05/18 08:52:02;;;;;;;7.32;1.95;;;;;;;;;;5066402;28;20041;-76
2023/05/18 08:54:35;;;;;;;5.53;2.40;;;;;;;;;;5065792;28;20055;-76
2023/05/18 08:57:08;;;;;;;4.88;2.20;;;;;;;;;;5066437;28;20048;-75
2023/05/18 08:59:42;;;;;;;2.88;1.38;;;;;;;;;;5066790;28;20060;-75
2023/05/18 09:02:13;;;;;;;3.17;2.58;;;;;;;;;;5066204;28;20051;-76
2023/05/18 09:04:46;;;;;;;2.55;1.45;;;;;;;;;;5066274;28;20056;-75
2023/05/18 09:07:17;;;;;;;4.15;1.85;;;;;;;;;;5065764;28;20075;-75
2023/05/18 09:09:48;;;;;;;5.25;1.58;;;;;;;;;;5065363;28;20040;-76
2023/05/18 09:12:21;;;;;;;9.05;2.13;;;;;;;;;;5066058;28;20052;-75
2023/05/18 09:15:18;;;;;;;4.68;2.13;;;;;;;;;;5065573;28;20037;-75
2023/05/18 09:17:48;;;;;;;4.75;2.40;;;;;;;;;;5065958;28;20041;-75
2023/05/18 09:20:18;;;;;;;;;;;;;;;;;;5066515;28;20056;-77
2023/05/18 09:22:50;;;;;;;3.95;2.50;;;;;;;;;;5065710;28;19924;-76
2023/05/18 09:25:23;;;;;;;7.15;2.30;;;;;;;;;;5065378;28;20056;-76
2023/05/18 09:27:54;;;;;;;6.00;3.03;;;;;;;;;;5065567;28;20530;-76
2023/05/18 09:30:26;;;;;;;5.05;2.65;;;;;;;;;;5066176;28;20189;-76
2023/05/18 09:32:55;;;;;;;;;;;;;;;;;;5066455;28;20699;-78
2023/05/18 09:35:27;;;;;;;2.38;1.60;;;;;;;;;;5065745;28;19931;-75
2023/05/18 09:38:04;;;;;;;6.53;1.77;;;;;;;;;;5064322;28;20055;-75
2023/05/18 09:40:34;;;;;;;3.53;2.28;;;;;;;;;;5065163;28;20051;-77
2023/05/18 09:43:06;;;;;;;;;;;;;;;;;;5065940;28;20088;-75
2023/05/18 09:45:48;;;;;;;2.25;1.45;;;;;;;;;;5065372;28;19928;-75
2023/05/18 09:48:18;;;;;;;2.47;1.88;;;;;;;;;;5065157;28;20047;-76
2023/05/18 09:50:52;;;;;;;3.13;1.70;;;;;;;;;;5065563;28;20040;-75
2023/05/18 09:53:22;;;;;;;2.45;1.60;;;;;;;;;;5064914;28;20431;-76
2023/05/18 09:55:52;;;;;;;3.05;1.70;;;;;;;;;;5063352;28;20547;-76
2023/05/18 09:58:24;;;;;;;6.10;2.00;;;;;;;;;;5064748;28;20090;-75
2023/05/18 10:01:00;;;;;;;3.53;1.90;;;;;;;;;;5064536;28;20536;-75
2023/05/18 10:03:38;;;;;;;3.45;2.00;;;;;;;;;;5065144;28;20051;-76
2023/05/18 10:06:12;;;;;;;3.92;1.70;;;;;;;;;;5065074;28;20052;-78
2023/05/18 10:08:44;;;;;;;5.22;1.73;;;;;;;;;;5064932;28;20421;-76
2023/05/18 10:11:18;;;;;;;8.98;2.40;;;;;;;;;;5065105;28;20139;-76
2023/05/18 10:13:54;;;;;;;14.02;2.03;;;;;;;;;;5065177;28;20045;-76
2023/05/18 10:16:25;;;;;;;5.00;1.98;;;;;;;;;;5065245;28;20051;-77
2023/05/18 10:18:56;;;;;;;7.18;1.92;;;;;;;;;;5064761;28;20049;-75
2023/05/18 10:21:30;;;;;;;7.90;2.15;;;;;;;;;;5065029;28;20048;-76
2023/05/18 10:24:03;;;;;;;8.68;2.47;;;;;;;;;;5064929;28;20048;-77
2023/05/18 10:26:38;;;;;;;11.13;2.50;;;;;;;;;;5063880;28;20048;-77
2023/05/18 10:29:10;;;;;;;10.98;2.85;;;;;;;;;;5065324;28;20053;-76
2023/05/18 10:31:41;;;;;;;8.70;2.65;;;;;;;;;;5063364;28;20526;-76
2023/05/18 10:34:11;;;;;;;10.38;2.40;;;;;;;;;;5064538;28;20040;-77
2023/05/18 10:36:44;;;;;;;5.72;2.40;;;;;;;;;;5065189;28;20094;-76
2023/05/18 10:39:15;;;;;;;4.75;2.38;;;;;;;;;;5064968;28;20522;-77
2023/05/18 10:41:46;;;;;;;5.53;2.50;;;;;;;;;;5065316;28;20049;-76
2023/05/18 10:44:17;;;;;;;10.15;3.42;;;;;;;;;;5064512;28;20067;-76
2023/05/18 10:46:49;;;;;;;7.10;4.40;;;;;;;;;;5065072;28;20495;-77
2023/05/18 10:49:24;;;;;;;12.73;3.88;;;;;;;;;;5064506;28;20056;-75
2023/05/18 10:51:57;;;;;;;13.07;3.85;;;;;;;;;;5065190;28;20044;-76
2023/05/18 10:54:27;;;;;;;10.30;3.88;;;;;;;;;;5064352;28;20059;-77
2023/05/18 10:57:01;;;;;;;15.77;4.30;;;;;;;;;;5064618;28;20051;-78
2023/05/18 10:59:33;;;;;;;6.82;2.75;;;;;;;;;;5064567;28;20048;-77
2023/05/18 11:02:03;;;;;;;7.80;3.13;;;;;;;;;;5065283;28;20499;-75
2023/05/18 11:04:33;;;;;;;5.40;3.33;;;;;;;;;;5064699;28;20052;-77
2023/05/18 11:07:09;;;;;;;6.97;2.53;;;;;;;;;;5065568;28;20063;-77
2023/05/18 11:09:44;;;;;;;6.10;2.88;;;;;;;;;;5068698;28;20040;-77
2023/05/18 11:12:19;;;;;;;7.47;2.45;;;;;;;;;;5068726;28;20503;-79
2023/05/18 11:14:52;;;;;;;12.02;2.33;;;;;;;;;;5068869;28;20075;-77
2023/05/18 11:17:24;;;;;;;3.92;2.67;;;;;;;;;;5067996;28;20044;-75
2023/05/18 11:20:08;;;;;;;3.65;2.08;;;;;;;;;;5068939;28;20510;-75
2023/05/18 11:22:51;;;;;;;8.88;2.90;;;;;;;;;;5067247;28;20403;-76
2023/05/18 11:25:25;;;;;;;8.45;3.30;;;;;;;;;;5067927;28;20059;-76
2023/05/18 11:28:00;;;;;;;4.85;2.83;;;;;;;;;;5067878;28;20057;-79
2023/05/18 11:30:39;;;;;;;21.23;4.03;;;;;;;;;;5067978;28;20491;-76
2023/05/18 11:33:39;;;;;;;7.28;2.72;;;;;;;;;;5068324;28;20048;-76
2023/05/18 11:36:13;;;;;;;9.00;3.15;;;;;;;;;;5068373;28;20044;-74
2023/05/18 11:38:51;;;;;;;4.90;2.80;;;;;;;;;;5067927;28;20044;-75
2023/05/18 11:41:37;;;;;;;6.22;2.67;;;;;;;;;;5067917;28;20044;-81
2023/05/18 11:44:20;;;;;;;7.88;3.50;;;;;;;;;;5067609;28;20052;-75
2023/05/18 11:47:02;;;;;;;8.65;5.18;;;;;;;;;;5067688;28;20040;-75
2023/05/18 11:49:36;;;;;;;5.22;2.55;;;;;;;;;;5067809;28;20044;-80
2023/05/18 11:52:21;;;;;;;10.48;3.47;;;;;;;;;;5066935;28;20060;-76
2023/05/18 11:54:53;;;;;;;9.38;2.50;;;;;;;;;;5067734;28;20935;-76
2023/05/18 11:57:39;;;;;;;4.95;2.97;;;;;;;;;;5067369;28;20052;-76
2023/05/18 12:00:11;;;;;;;7.53;4.63;;;;;;;;;;5067550;28;20671;-75
2023/05/18 12:02:44;;;;;;;7.57;3.58;;;;;;;;;;5067445;28;20408;-77
2023/05/18 12:05:16;;;;;;;13.73;4.78;;;;;;;;;;5067375;28;20055;-76
2023/05/18 12:07:52;;;;;;;15.55;4.80;;;;;;;;;;5067085;28;20060;-75
2023/05/18 12:10:23;;;;;;;6.47;3.97;;;;;;;;;;5067161;28;20056;-76
2023/05/18 12:12:55;;;;;;;9.77;3.95;;;;;;;;;;5067160;28;20048;-75
2023/05/18 12:15:27;;;;;;;6.85;3.70;;;;;;;;;;5067064;28;20045;-76
2023/05/18 12:17:58;;;;;;;7.15;3.75;;;;;;;;;;5064498;28;20065;-75
2023/05/18 12:20:30;;;;;;;9.32;4.18;;;;;;;;;;5067100;28;20060;-76
2023/05/18 12:23:03;;;;;;;8.63;4.78;;;;;;;;;;5066664;28;20071;-76
2023/05/18 12:25:33;;;;;;;6.82;3.80;;;;;;;;;;5067084;28;20044;-76
2023/05/18 12:28:03;;;;;;;7.22;5.07;;;;;;;;;;5067103;28;20056;-80
2023/05/18 12:30:35;;;;;;;5.30;3.33;;;;;;;;;;5067034;28;20036;-76
2023/05/18 12:33:07;;;;;;;8.68;3.33;;;;;;;;;;5066930;28;20048;-76
2023/05/18 12:35:40;;;;;;;19.02;3.47;;;;;;;;;;5066956;28;20044;-76
2023/05/18 12:38:10;;;;;;;6.93;3.67;;;;;;;;;;5067120;28;20530;-76
2023/05/18 12:40:47;;;;;;;5.47;2.92;;;;;;;;;;5065876;28;20503;-76
2023/05/18 12:43:18;;;;;;;6.28;2.97;;;;;;;;;;5066066;28;20056;-76
2023/05/18 12:45:48;;;;;;;6.53;3.30;;;;;;;;;;5066887;28;20052;-74
2023/05/18 12:48:21;;;;;;;8.48;3.30;;;;;;;;;;5066669;28;20067;-80
2023/05/18 12:50:52;;;;;;;10.38;3.85;;;;;;;;;;5065694;28;20329;-76
2023/05/18 12:53:23;;;;;;;7.53;4.15;;;;;;;;;;5066582;28;20049;-75
2023/05/18 12:56:00;;;;;;;6.63;4.78;;;;;;;;;;5066121;28;20048;-75
2023/05/18 12:58:31;;;;;;;10.50;4.88;;;;;;;;;;5066275;28;20052;-76
2023/05/18 13:01:11;;;;;;;9.48;5.22;;;;;;;;;;5065895;28;20052;-74
2023/05/18 13:03:43;;;;;;;13.60;9.20;;;;;;;;;;5065911;28;20418;-74
2023/05/18 13:06:13;;;;;;;10.30;6.45;;;;;;;;;;5066353;28;20048;-74
2023/05/18 13:08:43;;;;;;;7.88;5.45;;;;;;;;;;5062537;28;20045;-74
2023/05/18 13:11:28;;;;;;;9.35;4.53;;;;;;;;;;5046750;28;20045;-74
2023/05/18 13:14:07;;;;;;;10.10;5.20;;;;;;;;;;5065850;28;20052;-74
2023/05/18 13:16:40;;;;;;;10.00;4.82;;;;;;;;;;5064065;28;20056;-74
2023/05/18 13:19:17;;;;;;;11.15;4.80;;;;;;;;;;5065879;28;20415;-74
2023/05/18 13:21:56;;;;;;;8.45;5.00;;;;;;;;;;5065702;28;20045;-74
2023/05/18 13:24:26;;;;;;;9.73;4.65;;;;;;;;;;5063282;28;20414;-75
2023/05/18 13:26:57;;;;;;;9.82;4.25;;;;;;;;;;5065984;28;20067;-73
2023/05/18 13:29:27;;;;;;;11.27;4.25;;;;;;;;;;5064458;28;20071;-73
2023/05/18 13:31:59;;;;;;;6.68;3.70;;;;;;;;;;5066062;28;20059;-74
2023/05/18 13:34:30;;;;;;;9.65;4.30;;;;;;;;;;5065450;28;20051;-75
2023/05/18 13:37:03;;;;;;;11.40;4.10;;;;;;;;;;5065543;28;20140;-75
2023/05/18 13:39:34;;;;;;;10.05;3.40;;;;;;;;;;5065894;28;20536;-74
2023/05/18 13:42:06;;;;;;;11.95;3.53;;;;;;;;;;5065453;28;20095;-74
2023/05/18 13:44:37;;;;;;;6.63;3.40;;;;;;;;;;5065558;28;20495;-73
2023/05/18 13:47:08;;;;;;;11.27;3.60;;;;;;;;;;5065525;28;20521;-73
2023/05/18 13:49:37;;;;;;;10.32;3.65;;;;;;;;;;5064275;28;20053;-75
2023/05/18 13:52:08;;;;;;;7.10;3.10;;;;;;;;;;5065652;28;20049;-74
2023/05/18 13:54:46;;;;;;;7.25;4.40;;;;;;;;;;5063876;28;20040;-75
2023/05/18 13:57:16;;;;;;;8.23;3.47;;;;;;;;;;5065150;28;20067;-74
2023/05/18 13:59:47;;;;;;;7.80;3.58;;;;;;;;;;5065050;28;20055;-74
2023/05/18 14:02:19;;;;;;;17.50;3.72;;;;;;;;;;5063687;28;20415;-75
2023/05/18 14:04:51;;;;;;;9.15;3.67;;;;;;;;;;5065024;28;20045;-75
2023/05/18 14:07:23;;;;;;;6.30;3.45;;;;;;;;;;5064210;28;20044;-74
2023/05/18 14:09:54;;;;;;;9.82;3.83;;;;;;;;;;5065421;28;20507;-74
2023/05/18 14:12:25;;;;;;;11.77;4.85;;;;;;;;;;5064720;28;20056;-75
2023/05/18 14:14:57;;;;;;;9.45;3.53;;;;;;;;;;5065332;28;20040;-74
2023/05/18 14:17:31;;;;;;;7.30;3.60;;;;;;;;;;5064819;28;20514;-74
2023/05/18 14:20:05;;;;;;;13.90;3.63;;;;;;;;;;5062871;28;20487;-74
2023/05/18 14:22:37;;;;;;;10.65;4.47;;;;;;;;;;5064342;28;20052;-73
2023/05/18 14:25:12;;;;;;;7.65;3.47;;;;;;;;;;5064782;28;20136;-74
2023/05/18 14:27:42;;;;;;;8.77;3.90;;;;;;;;;;5064582;28;20052;-74
2023/05/18 14:30:14;;;;;;;7.40;3.35;;;;;;;;;;5065189;28;20060;-74
2023/05/18 14:32:45;;;;;;;8.43;3.10;;;;;;;;;;5065279;28;20048;-73
2023/05/18 14:35:17;;;;;;;5.97;3.33;;;;;;;;;;5064964;28;20063;-76
2023/05/18 14:37:48;;;;;;;8.88;3.28;;;;;;;;;;5065023;28;20052;-77
2023/05/18 14:40:20;;;;;;;8.15;3.30;;;;;;;;;;5065954;28;20056;-76
2023/05/18 14:42:50;;;;;;;8.98;3.67;;;;;;;;;;5068630;28;20053;-75
2023/05/18 14:45:23;;;;;;;6.25;3.53;;;;;;;;;;5068758;28;20629;-75
2023/05/18 14:47:53;;;;;;;6.22;3.20;;;;;;;;;;5068701;28;20503;-75
2023/05/18 14:50:25;;;;;;;7.82;3.58;;;;;;;;;;5069172;28;20045;-75
2023/05/18 14:52:56;;;;;;;11.63;4.47;;;;;;;;;;5068755;28;20625;-75
2023/05/18 14:55:27;;;;;;;20.23;4.30;;;;;;;;;;5067836;28;20053;-74
2023/05/18 14:57:57;;;;;;;14.23;4.15;;;;;;;;;;5068470;28;20056;-77
2023/05/18 15:00:29;;;;;;;9.57;3.75;;;;;;;;;;5068284;28;20052;-78
2023/05/18 15:03:00;;;;;;;6.82;3.67;;;;;;;;;;5068536;28;20060;-75
2023/05/18 15:05:32;;;;;;;7.97;3.40;;;;;;;;;;5068014;28;20538;-76
2023/05/18 15:08:05;;;;;;;6.68;3.25;;;;;;;;;;5068706;28;20044;-76
2023/05/18 15:10:36;;;;;;;7.03;3.15;;;;;;;;;;5067404;28;20055;-76
2023/05/18 15:13:07;;;;;;;7.68;3.20;;;;;;;;;;5067126;28;20048;-73
2023/05/18 15:15:38;;;;;;;5.78;3.55;;;;;;;;;;5068238;28;20051;-75
2023/05/18 15:18:09;;;;;;;8.90;3.47;;;;;;;;;;5068035;28;20053;-75